sensor_id;sensor_type;location;lat;lon;timestamp;pressure;altitude;pressure_sealevel;temperature;humidity
76694;BME280;69667;52.136;5.424;2023-05-19T00:01:13;102846.78;;;8.61;78.86
76694;BME280;69667;52.136;5.424;2023-05-19T00:03:53;102842.34;;;8.60;79.21
76694;BME280;69667;52.136;5.424;2023-05-19T00:06:25;102843.28;;;8.59;79.52
76694;BME280;69667;52.136;5.424;2023-05-19T00:08:59;102845.13;;;8.57;79.71
76694;BME280;69667;52.136;5.424;2023-05-19T00:11:26;102843.41;;;8.55;79.74
76694;BME280;69667;52.136;5.424;2023-05-19T00:13:54;102844.34;;;8.54;79.26
76694;BME280;69667;52.136;5.424;2023-05-19T00:16:23;102839.16;;;8.49;80.08
76694;BME280;69667;52.136;5.424;2023-05-19T00:18:50;102835.75;;;8.43;79.85
76694;BME280;69667;52.136;5.424;2023-05-19T00:21:17;102834.97;;;8.41;80.15
76694;BME280;69667;52.136;5.424;2023-05-19T00:23:43;102828.75;;;8.39;80.21
76694;BME280;69667;52.136;5.424;2023-05-19T00:26:10;102823.47;;;8.36;80.22
76694;BME280;69667;52.136;5.424;2023-05-19T00:28:41;102823.53;;;8.34;80.41
76694;BME280;69667;52.136;5.424;2023-05-19T00:31:08;102824.56;;;8.30;80.86
76694;BME280;69667;52.136;5.424;2023-05-19T00:33:34;102825.56;;;8.26;80.95
76694;BME280;69667;52.136;5.424;2023-05-19T00:36:01;102819.34;;;8.26;80.70
76694;BME280;69667;52.136;5.424;2023-05-19T00:38:34;102817.63;;;8.22;81.05
76694;BME280;69667;52.136;5.424;2023-05-19T00:41:02;102816.91;;;8.17;81.04
76694;BME280;69667;52.136;5.424;2023-05-19T00:43:29;102822.25;;;8.18;81.30
76694;BME280;69667;52.136;5.424;2023-05-19T00:45:56;102822.41;;;8.14;81.23
76694;BME280;69667;52.136;5.424;2023-05-19T00:48:24;102820.69;;;8.11;81.61
76694;BME280;69667;52.136;5.424;2023-05-19T00:50:52;102825.31;;;8.08;81.78
76694;BME280;69667;52.136;5.424;2023-05-19T00:53:20;102826.38;;;8.02;81.75
76694;BME280;69667;52.136;5.424;2023-05-19T00:55:48;102831.88;;;7.99;82.10
76694;BME280;69667;52.136;5.424;2023-05-19T00:58:16;102831.03;;;7.97;81.94
76694;BME280;69667;52.136;5.424;2023-05-19T01:00:44;102828.53;;;7.91;82.18
76694;BME280;69667;52.136;5.424;2023-05-19T01:03:11;102827.63;;;7.92;82.55
76694;BME280;69667;52.136;5.424;2023-05-19T01:05:39;102828.56;;;7.90;82.73
76694;BME280;69667;52.136;5.424;2023-05-19T01:08:12;102827.78;;;7.86;82.75
76694;BME280;69667;52.136;5.424;2023-05-19T01:10:39;102828.84;;;7.82;83.21
76694;BME280;69667;52.136;5.424;2023-05-19T01:13:06;102832.44;;;7.81;83.13
76694;BME280;69667;52.136;5.424;2023-05-19T01:21:39;102828.22;;;7.74;83.18
76694;BME280;69667;52.136;5.424;2023-05-19T01:24:48;102834.44;;;7.74;83.43
76694;BME280;69667;52.136;5.424;2023-05-19T01:30:35;102828.31;;;7.71;83.64
76694;BME280;69667;52.136;5.424;2023-05-19T01:33:05;102823.06;;;7.66;83.85
76694;BME280;69667;52.136;5.424;2023-05-19T01:35:34;102824.16;;;7.61;83.88
76694;BME280;69667;52.136;5.424;2023-05-19T01:38:02;102816.16;;;7.58;83.70
76694;BME280;69667;52.136;5.424;2023-05-19T01:40:29;102810.00;;;7.56;84.30
76694;BME280;69667;52.136;5.424;2023-05-19T01:42:59;102812.69;;;7.54;84.16
76694;BME280;69667;52.136;5.424;2023-05-19T01:45:31;102811.94;;;7.51;84.32
76694;BME280;69667;52.136;5.424;2023-05-19T01:48:02;102819.09;;;7.50;84.22
76694;BME280;69667;52.136;5.424;2023-05-19T01:50:29;102821.91;;;7.47;84.28
76694;BME280;69667;52.136;5.424;2023-05-19T01:52:57;102821.00;;;7.47;84.72
76694;BME280;69667;52.136;5.424;2023-05-19T01:55:24;102820.16;;;7.45;85.01
76694;BME280;69667;52.136;5.424;2023-05-19T02:00:53;102801.78;;;7.31;84.75
76694;BME280;69667;52.136;5.424;2023-05-19T02:03:34;102799.19;;;7.28;85.27
76694;BME280;69667;52.136;5.424;2023-05-19T02:12:20;102805.72;;;7.20;85.75
76694;BME280;69667;52.136;5.424;2023-05-19T02:15:04;102811.13;;;7.18;86.37
76694;BME280;69667;52.136;5.424;2023-05-19T02:17:35;102810.19;;;7.21;85.73
76694;BME280;69667;52.136;5.424;2023-05-19T02:20:04;102810.25;;;7.18;85.85
76694;BME280;69667;52.136;5.424;2023-05-19T02:22:31;102802.34;;;7.13;85.96
76694;BME280;69667;52.136;5.424;2023-05-19T02:24:57;102806.03;;;7.09;86.20
76694;BME280;69667;52.136;5.424;2023-05-19T02:27:24;102803.44;;;7.06;86.45
76694;BME280;69667;52.136;5.424;2023-05-19T02:29:51;102799.16;;;7.01;86.33
76694;BME280;69667;52.136;5.424;2023-05-19T02:32:19;102805.53;;;6.97;85.80
76694;BME280;69667;52.136;5.424;2023-05-19T02:34:46;102799.31;;;6.95;86.11
76694;BME280;69667;52.136;5.424;2023-05-19T02:37:14;102791.31;;;6.93;86.88
76694;BME280;69667;52.136;5.424;2023-05-19T02:39:41;102791.31;;;6.93;86.49
76694;BME280;69667;52.136;5.424;2023-05-19T02:42:08;102795.88;;;6.90;87.14
76694;BME280;69667;52.136;5.424;2023-05-19T02:44:35;102795.97;;;6.87;87.20
76694;BME280;69667;52.136;5.424;2023-05-19T02:47:01;102792.44;;;6.85;87.10
76694;BME280;69667;52.136;5.424;2023-05-19T02:49:28;102781.81;;;6.82;86.95
76694;BME280;69667;52.136;5.424;2023-05-19T02:52:04;102786.44;;;6.77;87.01
76694;BME280;69667;52.136;5.424;2023-05-19T02:54:32;102778.38;;;6.77;87.25
76694;BME280;69667;52.136;5.424;2023-05-19T02:57:00;102781.16;;;6.74;87.67
76694;BME280;69667;52.136;5.424;2023-05-19T02:59:26;102780.22;;;6.75;87.66
76694;BME280;69667;52.136;5.424;2023-05-19T03:01:54;102784.72;;;6.74;88.34
76694;BME280;69667;52.136;5.424;2023-05-19T03:04:21;102773.25;;;6.69;87.98
76694;BME280;69667;52.136;5.424;2023-05-19T03:06:48;102780.50;;;6.66;88.19
76694;BME280;69667;52.136;5.424;2023-05-19T03:09:15;102776.91;;;6.65;87.88
76694;BME280;69667;52.136;5.424;2023-05-19T03:11:42;102775.97;;;6.66;88.85
76694;BME280;69667;52.136;5.424;2023-05-19T03:14:08;102769.81;;;6.64;88.30
76694;BME280;69667;52.136;5.424;2023-05-19T03:16:35;102769.91;;;6.60;87.80
76694;BME280;69667;52.136;5.424;2023-05-19T03:19:02;102773.53;;;6.59;88.70
76694;BME280;69667;52.136;5.424;2023-05-19T03:21:28;102770.00;;;6.57;88.44
76694;BME280;69667;52.136;5.424;2023-05-19T03:23:55;102773.63;;;6.56;88.28
76694;BME280;69667;52.136;5.424;2023-05-19T03:26:22;102770.09;;;6.54;88.68
76694;BME280;69667;52.136;5.424;2023-05-19T03:28:49;102777.31;;;6.52;88.28
76694;BME280;69667;52.136;5.424;2023-05-19T03:31:16;102774.66;;;6.50;88.80
76694;BME280;69667;52.136;5.424;2023-05-19T03:33:43;102767.56;;;6.47;88.28
76694;BME280;69667;52.136;5.424;2023-05-19T03:36:10;102770.34;;;6.44;88.84
76694;BME280;69667;52.136;5.424;2023-05-19T03:38:38;102771.28;;;6.43;88.05
76694;BME280;69667;52.136;5.424;2023-05-19T03:41:04;102776.69;;;6.42;88.17
76694;BME280;69667;52.136;5.424;2023-05-19T03:43:31;102766.91;;;6.39;88.67
76694;BME280;69667;52.136;5.424;2023-05-19T03:46:01;102761.59;;;6.38;88.68
76694;BME280;69667;52.136;5.424;2023-05-19T03:48:48;102765.09;;;6.40;87.87
76694;BME280;69667;52.136;5.424;2023-05-19T03:51:15;102769.59;;;6.39;88.68
76694;BME280;69667;52.136;5.424;2023-05-19T03:53:43;102767.75;;;6.41;89.13
76694;BME280;69667;52.136;5.424;2023-05-19T03:56:10;102765.91;;;6.43;88.93
76694;BME280;69667;52.136;5.424;2023-05-19T03:58:39;102766.75;;;6.46;88.94
76694;BME280;69667;52.136;5.424;2023-05-19T04:01:10;102771.19;;;6.47;88.85
76694;BME280;69667;52.136;5.424;2023-05-19T04:03:36;102772.03;;;6.49;88.39
76694;BME280;69667;52.136;5.424;2023-05-19T04:06:03;102771.00;;;6.53;89.00
76694;BME280;69667;52.136;5.424;2023-05-19T04:08:30;102770.94;;;6.56;89.07
76694;BME280;69667;52.136;5.424;2023-05-19T04:10:57;102772.69;;;6.57;89.13
76694;BME280;69667;52.136;5.424;2023-05-19T04:13:24;102764.66;;;6.57;89.30
76694;BME280;69667;52.136;5.424;2023-05-19T04:15:50;102777.91;;;6.61;88.37
76694;BME280;69667;52.136;5.424;2023-05-19T04:18:17;102771.56;;;6.65;88.95
76694;BME280;69667;52.136;5.424;2023-05-19T04:20:43;102772.34;;;6.69;88.75
76694;BME280;69667;52.136;5.424;2023-05-19T04:23:10;102774.84;;;6.75;89.19
76694;BME280;69667;52.136;5.424;2023-05-19T04:25:37;102775.50;;;6.84;89.12
76694;BME280;69667;52.136;5.424;2023-05-19T04:28:03;102774.34;;;6.91;88.90
76694;BME280;69667;52.136;5.424;2023-05-19T04:30:30;102777.78;;;6.96;88.81
76694;BME280;69667;52.136;5.424;2023-05-19T04:32:57;102781.22;;;7.01;88.53
76694;BME280;69667;52.136;5.424;2023-05-19T04:35:25;102782.91;;;7.05;88.11
76694;BME280;69667;52.136;5.424;2023-05-19T04:37:52;102774.75;;;7.08;88.45
76694;BME280;69667;52.136;5.424;2023-05-19T04:40:26;102772.84;;;7.12;88.42
76694;BME280;69667;52.136;5.424;2023-05-19T04:42:56;102779.00;;;7.15;88.45
76694;BME280;69667;52.136;5.424;2023-05-19T04:45:24;102781.38;;;7.26;88.25
76694;BME280;69667;52.136;5.424;2023-05-19T04:47:56;102778.53;;;7.30;88.16
76694;BME280;69667;52.136;5.424;2023-05-19T04:50:23;102784.44;;;7.41;88.75
76694;BME280;69667;52.136;5.424;2023-05-19T04:52:51;102783.25;;;7.51;87.92
76694;BME280;69667;52.136;5.424;2023-05-19T04:55:17;102784.75;;;7.60;88.05
76694;BME280;69667;52.136;5.424;2023-05-19T04:57:45;102789.06;;;7.65;87.86
76694;BME280;69667;52.136;5.424;2023-05-19T05:00:13;102780.69;;;7.74;87.53
76694;BME280;69667;52.136;5.424;2023-05-19T05:02:51;102780.44;;;7.82;88.00
76694;BME280;69667;52.136;5.424;2023-05-19T05:05:19;102777.50;;;7.90;87.74
76694;BME280;69667;52.136;5.424;2023-05-19T05:07:46;102779.16;;;7.94;87.10
76694;BME280;69667;52.136;5.424;2023-05-19T05:10:13;102784.50;;;7.95;87.49
76694;BME280;69667;52.136;5.424;2023-05-19T05:12:39;102780.84;;;7.96;87.73
76694;BME280;69667;52.136;5.424;2023-05-19T05:15:07;102786.88;;;8.04;87.50
76694;BME280;69667;52.136;5.424;2023-05-19T05:17:34;102785.47;;;8.19;87.18
76694;BME280;69667;52.136;5.424;2023-05-19T05:20:02;102790.59;;;8.28;86.93
76694;BME280;69667;52.136;5.424;2023-05-19T05:22:31;102784.97;;;8.34;87.03
76694;BME280;69667;52.136;5.424;2023-05-19T05:24:58;102783.84;;;8.41;86.82
76694;BME280;69667;52.136;5.424;2023-05-19T05:27:26;102784.25;;;8.53;86.40
76694;BME280;69667;52.136;5.424;2023-05-19T05:29:53;102789.22;;;8.65;86.49
76694;BME280;69667;52.136;5.424;2023-05-19T05:32:20;102784.31;;;8.76;86.27
76694;BME280;69667;52.136;5.424;2023-05-19T05:34:46;102785.97;;;8.80;85.93
76694;BME280;69667;52.136;5.424;2023-05-19T05:37:14;102780.41;;;8.85;85.75
76694;BME280;69667;52.136;5.424;2023-05-19T05:39:41;102786.44;;;8.91;85.58
76694;BME280;69667;52.136;5.424;2023-05-19T05:42:08;102782.50;;;9.00;85.49
76694;BME280;69667;52.136;5.424;2023-05-19T05:44:34;102779.06;;;9.64;86.32
76694;BME280;69667;52.136;5.424;2023-05-19T05:47:03;102772.03;;;12.65;80.65
76694;BME280;69667;52.136;5.424;2023-05-19T05:49:30;102760.44;;;15.76;69.83
76694;BME280;69667;52.136;5.424;2023-05-19T05:51:57;102763.09;;;17.56;62.59
76694;BME280;69667;52.136;5.424;2023-05-19T05:54:36;102766.91;;;18.61;56.87
76694;BME280;69667;52.136;5.424;2023-05-19T05:57:03;102764.97;;;19.18;53.76
76694;BME280;69667;52.136;5.424;2023-05-19T05:59:30;102767.31;;;20.32;49.67
76694;BME280;69667;52.136;5.424;2023-05-19T06:01:56;102749.47;;;21.19;46.89
76694;BME280;69667;52.136;5.424;2023-05-19T06:04:23;102758.66;;;20.68;45.88
76694;BME280;69667;52.136;5.424;2023-05-19T06:06:52;102769.00;;;19.47;48.18
76694;BME280;69667;52.136;5.424;2023-05-19T06:09:23;102752.50;;;20.23;47.94
76694;BME280;69667;52.136;5.424;2023-05-19T06:11:50;102754.78;;;22.10;44.10
76694;BME280;69667;52.136;5.424;2023-05-19T06:14:17;102743.97;;;23.75;40.34
76694;BME280;69667;52.136;5.424;2023-05-19T06:17:02;102761.16;;;22.77;40.36
76694;BME280;69667;52.136;5.424;2023-05-19T06:19:29;102757.06;;;23.46;40.08
76694;BME280;69667;52.136;5.424;2023-05-19T06:21:56;102757.28;;;24.77;36.83
76694;BME280;69667;52.136;5.424;2023-05-19T06:24:23;102752.75;;;24.68;37.05
76694;BME280;69667;52.136;5.424;2023-05-19T06:26:49;102760.53;;;23.02;38.88
76694;BME280;69667;52.136;5.424;2023-05-19T06:29:17;102758.69;;;23.39;40.23
76694;BME280;69667;52.136;5.424;2023-05-19T06:31:43;102741.94;;;24.75;37.14
76694;BME280;69667;52.136;5.424;2023-05-19T06:34:13;102750.72;;;25.55;33.71
76694;BME280;69667;52.136;5.424;2023-05-19T06:36:44;102746.19;;;25.96;33.37
76694;BME280;69667;52.136;5.424;2023-05-19T06:39:11;102737.47;;;26.57;32.78
76694;BME280;69667;52.136;5.424;2023-05-19T06:41:39;102746.09;;;27.10;31.64
76694;BME280;69667;52.136;5.424;2023-05-19T06:44:06;102740.59;;;27.57;31.87
76694;BME280;69667;52.136;5.424;2023-05-19T06:46:34;102741.50;;;27.80;29.88
76694;BME280;69667;52.136;5.424;2023-05-19T06:49:01;102736.88;;;27.72;30.59
76694;BME280;69667;52.136;5.424;2023-05-19T06:51:32;102744.00;;;28.05;31.02
76694;BME280;69667;52.136;5.424;2023-05-19T06:53:58;102735.50;;;28.07;28.99
76694;BME280;69667;52.136;5.424;2023-05-19T06:56:25;102739.72;;;27.95;28.25
76694;BME280;69667;52.136;5.424;2023-05-19T06:58:52;102743.06;;;28.13;28.41
76694;BME280;69667;52.136;5.424;2023-05-19T07:01:23;102740.50;;;27.73;29.28
76694;BME280;69667;52.136;5.424;2023-05-19T07:03:53;102740.41;;;27.97;28.92
76694;BME280;69667;52.136;5.424;2023-05-19T07:06:21;102751.00;;;27.55;29.70
76694;BME280;69667;52.136;5.424;2023-05-19T07:08:48;102744.72;;;27.69;30.31
76694;BME280;69667;52.136;5.424;2023-05-19T07:11:16;102739.19;;;26.34;31.46
76694;BME280;69667;52.136;5.424;2023-05-19T07:13:43;102742.19;;;25.15;32.92
76694;BME280;69667;52.136;5.424;2023-05-19T07:16:10;102739.50;;;24.02;33.89
76694;BME280;69667;52.136;5.424;2023-05-19T07:18:37;102746.44;;;24.06;35.65
76694;BME280;69667;52.136;5.424;2023-05-19T07:21:03;102744.38;;;24.43;33.88
76694;BME280;69667;52.136;5.424;2023-05-19T07:23:30;102740.44;;;24.10;34.83
76694;BME280;69667;52.136;5.424;2023-05-19T07:25:56;102741.94;;;24.22;35.43
76694;BME280;69667;52.136;5.424;2023-05-19T07:28:23;102738.63;;;24.01;33.74
76694;BME280;69667;52.136;5.424;2023-05-19T07:30:50;102741.13;;;23.95;34.23
76694;BME280;69667;52.136;5.424;2023-05-19T07:33:17;102741.69;;;24.16;33.55
76694;BME280;69667;52.136;5.424;2023-05-19T07:35:43;102739.91;;;24.42;32.81
76694;BME280;69667;52.136;5.424;2023-05-19T07:38:17;102745.16;;;24.53;32.67
76694;BME280;69667;52.136;5.424;2023-05-19T07:40:43;102745.75;;;24.82;31.44
76694;BME280;69667;52.136;5.424;2023-05-19T07:43:09;102746.63;;;25.08;32.62
76694;BME280;69667;52.136;5.424;2023-05-19T07:45:37;102746.59;;;25.00;32.47
76694;BME280;69667;52.136;5.424;2023-05-19T07:48:04;102742.25;;;24.02;32.75
76694;BME280;69667;52.136;5.424;2023-05-19T07:50:31;102748.84;;;22.81;34.20
76694;BME280;69667;52.136;5.424;2023-05-19T07:52:57;102748.50;;;23.03;36.17
76694;BME280;69667;52.136;5.424;2023-05-19T07:55:24;102735.31;;;24.15;32.99
76694;BME280;69667;52.136;5.424;2023-05-19T07:57:51;102732.28;;;24.44;32.18
76694;BME280;69667;52.136;5.424;2023-05-19T08:00:18;102725.78;;;23.83;33.71
76694;BME280;69667;52.136;5.424;2023-05-19T08:02:45;102728.47;;;24.62;33.01
76694;BME280;69667;52.136;5.424;2023-05-19T08:05:13;102731.34;;;24.70;32.79
76694;BME280;69667;52.136;5.424;2023-05-19T08:07:40;102721.06;;;23.93;34.97
76694;BME280;69667;52.136;5.424;2023-05-19T08:10:07;102719.06;;;24.12;32.52
76694;BME280;69667;52.136;5.424;2023-05-19T08:12:33;102723.34;;;24.07;32.19
76694;BME280;69667;52.136;5.424;2023-05-19T08:15:00;102712.75;;;25.06;30.98
76694;BME280;69667;52.136;5.424;2023-05-19T08:17:27;102712.91;;;25.72;32.47
76694;BME280;69667;52.136;5.424;2023-05-19T08:19:54;102709.13;;;25.81;28.74
76694;BME280;69667;52.136;5.424;2023-05-19T08:22:20;102711.28;;;25.20;31.53
76694;BME280;69667;52.136;5.424;2023-05-19T08:24:47;102705.44;;;25.56;28.75
76694;BME280;69667;52.136;5.424;2023-05-19T08:27:17;102696.94;;;25.50;29.15
76694;BME280;69667;52.136;5.424;2023-05-19T08:29:43;102692.28;;;25.50;29.62
76694;BME280;69667;52.136;5.424;2023-05-19T08:32:20;102693.22;;;25.91;31.93
76694;BME280;69667;52.136;5.424;2023-05-19T08:34:47;102694.47;;;25.88;31.02
76694;BME280;69667;52.136;5.424;2023-05-19T08:37:20;102691.81;;;24.70;30.02
76694;BME280;69667;52.136;5.424;2023-05-19T08:40:06;102690.91;;;24.09;31.36
76694;BME280;69667;52.136;5.424;2023-05-19T08:42:37;102692.44;;;23.76;30.33
76694;BME280;69667;52.136;5.424;2023-05-19T08:45:04;102695.44;;;23.65;28.76
76694;BME280;69667;52.136;5.424;2023-05-19T08:47:30;102686.53;;;23.71;30.02
76694;BME280;69667;52.136;5.424;2023-05-19T08:50:06;102685.16;;;24.20;28.36
76694;BME280;69667;52.136;5.424;2023-05-19T08:52:54;102683.63;;;23.90;29.22
76694;BME280;69667;52.136;5.424;2023-05-19T08:55:30;102675.78;;;24.13;28.72
76694;BME280;69667;52.136;5.424;2023-05-19T08:58:00;102675.06;;;23.93;28.46
76694;BME280;69667;52.136;5.424;2023-05-19T09:00:28;102670.69;;;23.91;31.18
76694;BME280;69667;52.136;5.424;2023-05-19T09:02:55;102673.84;;;24.48;27.33
76694;BME280;69667;52.136;5.424;2023-05-19T09:05:31;102658.72;;;24.17;30.28
76694;BME280;69667;52.136;5.424;2023-05-19T09:08:02;102676.16;;;24.61;28.36
76694;BME280;69667;52.136;5.424;2023-05-19T09:10:29;102667.88;;;24.18;27.98
76694;BME280;69667;52.136;5.424;2023-05-19T09:12:56;102662.53;;;23.99;28.62
76694;BME280;69667;52.136;5.424;2023-05-19T09:15:25;102665.44;;;23.35;28.81
76694;BME280;69667;52.136;5.424;2023-05-19T09:18:05;102673.00;;;22.87;29.94
76694;BME280;69667;52.136;5.424;2023-05-19T09:20:36;102676.00;;;22.66;29.58
76694;BME280;69667;52.136;5.424;2023-05-19T09:23:04;102670.13;;;23.15;29.44
76694;BME280;69667;52.136;5.424;2023-05-19T09:25:30;102660.34;;;23.57;29.79
76694;BME280;69667;52.136;5.424;2023-05-19T09:27:57;102667.06;;;23.72;29.38
76694;BME280;69667;52.136;5.424;2023-05-19T09:30:24;102666.66;;;23.67;28.46
76694;BME280;69667;52.136;5.424;2023-05-19T09:32:51;102659.63;;;23.55;27.89
76694;BME280;69667;52.136;5.424;2023-05-19T09:35:18;102656.28;;;23.34;28.60
76694;BME280;69667;52.136;5.424;2023-05-19T09:37:49;102660.13;;;23.68;28.88
76694;BME280;69667;52.136;5.424;2023-05-19T09:40:16;102659.00;;;24.49;31.99
76694;BME280;69667;52.136;5.424;2023-05-19T09:42:42;102649.31;;;25.30;28.20
76694;BME280;69667;52.136;5.424;2023-05-19T09:45:09;102646.63;;;25.46;26.18
76694;BME280;69667;52.136;5.424;2023-05-19T09:47:40;102649.53;;;24.77;28.04
76694;BME280;69667;52.136;5.424;2023-05-19T09:50:09;102661.22;;;24.46;29.41
76694;BME280;69667;52.136;5.424;2023-05-19T09:52:37;102652.97;;;24.54;27.33
76694;BME280;69667;52.136;5.424;2023-05-19T09:55:05;102649.34;;;23.75;28.60
76694;BME280;69667;52.136;5.424;2023-05-19T09:57:35;102660.19;;;23.41;30.18
76694;BME280;69667;52.136;5.424;2023-05-19T10:00:06;102657.09;;;22.81;32.23
76694;BME280;69667;52.136;5.424;2023-05-19T10:02:41;102661.91;;;22.50;30.01
76694;BME280;69667;52.136;5.424;2023-05-19T10:05:15;102662.69;;;22.33;35.56
76694;BME280;69667;52.136;5.424;2023-05-19T10:07:43;102658.19;;;22.32;30.81
76694;BME280;69667;52.136;5.424;2023-05-19T10:10:11;102652.00;;;22.86;32.11
76694;BME280;69667;52.136;5.424;2023-05-19T10:12:39;102645.94;;;23.63;31.10
76694;BME280;69667;52.136;5.424;2023-05-19T10:15:29;102635.78;;;23.64;30.34
76694;BME280;69667;52.136;5.424;2023-05-19T10:18:25;102637.53;;;23.83;29.03
76694;BME280;69667;52.136;5.424;2023-05-19T10:20:56;102637.66;;;23.63;31.13
76694;BME280;69667;52.136;5.424;2023-05-19T10:23:23;102631.06;;;24.09;31.15
76694;BME280;69667;52.136;5.424;2023-05-19T10:25:51;102630.50;;;23.53;29.32
76694;BME280;69667;52.136;5.424;2023-05-19T10:28:21;102628.84;;;23.77;31.67
76694;BME280;69667;52.136;5.424;2023-05-19T10:30:55;102624.38;;;24.37;28.59
76694;BME280;69667;52.136;5.424;2023-05-19T10:33:55;102621.41;;;24.31;30.38
76694;BME280;69667;52.136;5.424;2023-05-19T10:39:05;102620.34;;;24.06;29.16
76694;BME280;69667;52.136;5.424;2023-05-19T10:41:48;102622.06;;;24.50;30.45
76694;BME280;69667;52.136;5.424;2023-05-19T10:47:12;102610.03;;;24.59;29.66
76694;BME280;69667;52.136;5.424;2023-05-19T10:49:39;102618.78;;;24.72;28.83
76694;BME280;69667;52.136;5.424;2023-05-19T10:52:22;102608.34;;;23.98;29.28
76694;BME280;69667;52.136;5.424;2023-05-19T10:54:51;102613.38;;;23.67;29.48
76694;BME280;69667;52.136;5.424;2023-05-19T10:57:24;102615.84;;;24.23;29.31
76694;BME280;69667;52.136;5.424;2023-05-19T10:59:57;102607.19;;;24.43;28.27
76694;BME280;69667;52.136;5.424;2023-05-19T11:02:50;102607.28;;;24.34;28.94
76694;BME280;69667;52.136;5.424;2023-05-19T11:05:28;102606.09;;;24.36;30.80
76694;BME280;69667;52.136;5.424;2023-05-19T11:08:04;102606.84;;;24.46;29.73
76694;BME280;69667;52.136;5.424;2023-05-19T11:10:31;102601.16;;;24.48;28.13
76694;BME280;69667;52.136;5.424;2023-05-19T11:12:57;102590.88;;;24.07;31.78
76694;BME280;69667;52.136;5.424;2023-05-19T11:15:25;102592.81;;;24.14;29.21
76694;BME280;69667;52.136;5.424;2023-05-19T11:17:55;102602.44;;;23.93;28.58
76694;BME280;69667;52.136;5.424;2023-05-19T11:20:24;102598.25;;;23.36;29.73
76694;BME280;69667;52.136;5.424;2023-05-19T11:23:14;102596.13;;;23.30;28.69
76694;BME280;69667;52.136;5.424;2023-05-19T11:25:49;102596.63;;;23.43;28.03
76694;BME280;69667;52.136;5.424;2023-05-19T11:28:18;102590.63;;;23.47;27.31
76694;BME280;69667;52.136;5.424;2023-05-19T11:30:47;102601.38;;;22.96;28.07
76694;BME280;69667;52.136;5.424;2023-05-19T11:33:18;102587.94;;;23.11;29.05
76694;BME280;69667;52.136;5.424;2023-05-19T11:35:46;102590.84;;;23.36;29.57
76694;BME280;69667;52.136;5.424;2023-05-19T11:38:13;102584.19;;;23.56;28.09
76694;BME280;69667;52.136;5.424;2023-05-19T11:40:42;102581.97;;;23.77;29.24
76694;BME280;69667;52.136;5.424;2023-05-19T11:43:09;102585.81;;;23.67;28.49
76694;BME280;69667;52.136;5.424;2023-05-19T11:45:36;102583.63;;;23.26;30.13
76694;BME280;69667;52.136;5.424;2023-05-19T11:48:03;102579.75;;;23.81;32.56
76694;BME280;69667;52.136;5.424;2023-05-19T11:50:38;102571.28;;;24.18;28.52
76694;BME280;69667;52.136;5.424;2023-05-19T11:53:06;102573.63;;;23.69;27.71
76694;BME280;69667;52.136;5.424;2023-05-19T11:55:41;102558.78;;;23.88;32.58
76694;BME280;69667;52.136;5.424;2023-05-19T11:58:08;102553.97;;;23.72;29.43
76694;BME280;69667;52.136;5.424;2023-05-19T12:00:37;102570.09;;;23.15;27.57
76694;BME280;69667;52.136;5.424;2023-05-19T12:03:05;102574.97;;;22.67;26.31
76694;BME280;69667;52.136;5.424;2023-05-19T12:05:36;102575.47;;;22.43;26.58
76694;BME280;69667;52.136;5.424;2023-05-19T12:08:08;102569.28;;;22.78;27.04
76694;BME280;69667;52.136;5.424;2023-05-19T12:10:35;102586.44;;;22.52;26.76
76694;BME280;69667;52.136;5.424;2023-05-19T12:13:02;102569.31;;;22.12;29.17
76694;BME280;69667;52.136;5.424;2023-05-19T12:15:30;102572.69;;;22.52;27.93
76694;BME280;69667;52.136;5.424;2023-05-19T12:17:59;102573.53;;;22.07;26.43
76694;BME280;69667;52.136;5.424;2023-05-19T12:20:28;102577.84;;;22.19;27.57
76694;BME280;69667;52.136;5.424;2023-05-19T12:26:11;102571.31;;;22.29;27.89
76694;BME280;69667;52.136;5.424;2023-05-19T12:28:38;102563.50;;;22.15;28.06
76694;BME280;69667;52.136;5.424;2023-05-19T12:31:05;102566.31;;;21.96;29.61
76694;BME280;69667;52.136;5.424;2023-05-19T12:33:32;102557.38;;;21.85;31.19
76694;BME280;69667;52.136;5.424;2023-05-19T12:36:01;102563.41;;;21.98;33.17
76694;BME280;69667;52.136;5.424;2023-05-19T12:38:28;102550.06;;;22.12;32.36
76694;BME280;69667;52.136;5.424;2023-05-19T12:40:57;102546.78;;;21.99;32.30
76694;BME280;69667;52.136;5.424;2023-05-19T12:43:24;102552.25;;;21.90;37.51
76694;BME280;69667;52.136;5.424;2023-05-19T12:45:51;102548.63;;;22.08;34.53
76694;BME280;69667;52.136;5.424;2023-05-19T12:48:21;102542.13;;;22.00;33.48
76694;BME280;69667;52.136;5.424;2023-05-19T12:50:50;102541.41;;;21.88;33.00
76694;BME280;69667;52.136;5.424;2023-05-19T12:53:19;102536.03;;;22.06;35.25
76694;BME280;69667;52.136;5.424;2023-05-19T12:55:45;102532.91;;;22.37;33.83
76694;BME280;69667;52.136;5.424;2023-05-19T12:58:14;102527.59;;;22.17;33.78
76694;BME280;69667;52.136;5.424;2023-05-19T13:00:41;102532.84;;;22.10;33.56
76694;BME280;69667;52.136;5.424;2023-05-19T13:03:28;102534.44;;;22.03;33.30
76694;BME280;69667;52.136;5.424;2023-05-19T13:06:00;102531.25;;;21.98;34.06
76694;BME280;69667;52.136;5.424;2023-05-19T13:08:27;102534.03;;;21.89;33.14
76694;BME280;69667;52.136;5.424;2023-05-19T13:10:54;102532.00;;;21.91;33.05
76694;BME280;69667;52.136;5.424;2023-05-19T13:13:21;102526.75;;;22.07;32.56
76694;BME280;69667;52.136;5.424;2023-05-19T13:15:47;102535.09;;;22.34;35.48
76694;BME280;69667;52.136;5.424;2023-05-19T13:18:15;102527.72;;;22.25;36.60
76694;BME280;69667;52.136;5.424;2023-05-19T13:20:43;102533.25;;;22.15;35.47
76694;BME280;69667;52.136;5.424;2023-05-19T13:23:10;102532.09;;;22.08;35.74
76694;BME280;69667;52.136;5.424;2023-05-19T13:25:37;102532.72;;;21.74;33.84
76694;BME280;69667;52.136;5.424;2023-05-19T13:28:04;102522.03;;;21.71;33.97
76694;BME280;69667;52.136;5.424;2023-05-19T13:30:32;102521.16;;;21.70;37.21
76694;BME280;69667;52.136;5.424;2023-05-19T13:32:59;102522.31;;;21.87;34.56